Time;durP1;ratioP1;P1;durP2;ratioP2;P2;SDS_P1;SDS_P2;PMS_P1;PMS_P2;Temp;Humidity;BMP_temperature;BMP_pressure;BME280_temperature;BME280_humidity;BME280_pressure;Samples;Min_cycle;Max_cycle;Signal;HPM_P1;HPM_P2
2021/11/12 05:10:13;;;;;;;;;;;;;;;3.57;100.00;100083.19;4984756;28;19968;-83
2021/11/12 05:12:51;;;;;;;;;;;;;;;3.72;100.00;100079.53;4967270;28;20396;-83
2021/11/12 05:50:23;;;;;;;;;;;;;;;2.94;98.10;100074.13;4964839;28;19925;-83
2021/11/12 08:45:38;;;;;;;;;;;;;;;2.72;78.85;100031.53;5406527;23;19930;-84
2021/11/12 08:48:07;;;;;;;;;;;;;;;2.72;78.86;100036.75;5012466;28;20368;-84
2021/11/12 08:50:36;;;;;;;;;;;;;;;2.70;78.72;100034.16;5013696;28;20275;-84
2021/11/12 08:53:06;;;;;;;;;;;;;;;2.77;78.68;100036.72;5013754;28;20012;-85
2021/11/12 08:55:34;;;;;;;;;;;;;;;2.76;78.39;100040.22;5012156;28;19926;-85
2021/11/12 08:57:59;;;;;;;;;;;;;;;2.81;78.24;100036.69;5006088;28;19952;-84
2021/11/12 09:00:25;;;;;;;;;;;;;;;2.93;78.25;100040.97;5002980;28;19921;-84
2021/11/12 09:02:51;;;;;;;;;;;;;;;2.95;78.43;100040.94;5004358;28;19932;-84
2021/11/12 09:05:18;;;;;;;;;;;;;;;2.96;78.66;100040.94;5004200;28;19972;-84
2021/11/12 09:07:47;;;;;;;;;;;;;;;2.97;78.38;100034.84;5004263;28;19926;-85
2021/11/12 09:10:13;;;;;;;;;;;;;;;2.93;78.24;100030.50;5003824;28;19928;-84
2021/11/12 09:12:38;;;;;;;;;;;;;;;2.98;78.10;100039.16;5004625;28;20331;-85
2021/11/12 09:15:12;;;;;;;;;;;;;;;3.42;80.28;100016.97;5009034;28;19917;-85
2021/11/12 09:17:44;;;;;;;;;;;;;;;3.03;80.81;100032.16;5003889;28;19939;-85
2021/11/12 09:20:09;;;;;;;;;;;;;;;4.42;84.22;100032.41;5003410;28;20296;-84
2021/11/12 09:22:35;;;;;;;;;;;;;;;4.49;80.77;100031.44;5003903;28;19971;-85
2021/11/12 09:25:00;;;;;;;;;;;;;;;3.89;80.56;100037.44;5003580;28;19918;-84
2021/11/12 09:27:26;;;;;;;;;;;;;;;3.64;81.48;100032.47;5003582;28;19926;-86
2021/11/12 09:29:51;;;;;;;;;;;;;;;4.13;81.24;100026.66;5002916;28;20365;-86
2021/11/12 09:32:16;;;;;;;;;;;;;;;4.47;81.95;100026.22;5003813;28;19968;-84
2021/11/12 09:34:42;;;;;;;;;;;;;;;4.08;80.66;100022.34;5003149;28;19922;-83
2021/11/12 09:37:08;;;;;;;;;;;;;;;3.97;81.20;100017.22;5003521;28;19968;-83
2021/11/12 09:39:34;;;;;;;;;;;;;;;3.76;79.92;100020.97;5002157;28;19917;-83
2021/11/12 09:42:00;;;;;;;;;;;;;;;4.20;80.66;100024.81;5003066;28;19976;-84
2021/11/12 09:44:26;;;;;;;;;;;;;;;4.05;80.02;100020.63;4984620;28;19918;-83
2021/11/12 09:46:51;;;;;;;;;;;;;;;3.86;80.22;100014.75;5003884;28;20291;-84
2021/11/12 09:49:17;;;;;;;;;;;;;;;3.76;79.89;100008.72;5003082;28;19918;-84
2021/11/12 09:51:42;;;;;;;;;;;;;;;3.74;79.28;100010.50;4985864;28;19964;-84
2021/11/12 09:54:07;;;;;;;;;;;;;;;3.67;78.92;99998.38;5002773;28;19918;-84
2021/11/12 09:56:34;;;;;;;;;;;;;;;3.72;78.81;100000.91;5003236;28;19964;-85
2021/11/12 09:58:59;;;;;;;;;;;;;;;3.71;78.85;99999.22;5000575;28;19926;-84
2021/11/12 10:01:29;;;;;;;;;;;;;;;3.71;78.87;99993.97;5002781;28;20388;-84
2021/11/12 10:03:59;;;;;;;;;;;;;;;3.69;78.78;100004.47;5002837;28;19944;-84
2021/11/12 10:06:26;;;;;;;;;;;;;;;3.71;78.48;100000.06;5001320;28;19921;-84
2021/11/12 10:08:52;;;;;;;;;;;;;;;3.62;78.30;100001.03;5003153;28;20396;-84
2021/11/12 10:11:40;;;;;;;;;;;;;;;3.64;78.05;99999.28;5003106;28;19924;-84
2021/11/12 10:14:11;;;;;;;;;;;;;;;3.69;78.06;100000.97;4984115;28;19925;-84
2021/11/12 10:16:36;;;;;;;;;;;;;;;3.67;77.91;100008.84;5002340;28;20357;-84
2021/11/12 10:19:14;;;;;;;;;;;;;;;3.66;77.96;100004.50;5002651;28;19925;-84
2021/11/12 10:21:42;;;;;;;;;;;;;;;3.73;78.11;100007.91;4985133;28;19949;-84
2021/11/12 10:24:09;;;;;;;;;;;;;;;3.73;77.56;100011.38;5002559;28;19937;-84
2021/11/12 10:26:35;;;;;;;;;;;;;;;3.70;78.34;100003.59;5003290;28;19968;-84
2021/11/12 10:29:08;;;;;;;;;;;;;;;3.74;77.84;99997.41;5001119;28;19917;-83
2021/11/12 10:31:52;;;;;;;;;;;;;;;3.66;78.47;99994.00;5002809;28;19922;-84
2021/11/12 10:34:21;;;;;;;;;;;;;;;3.63;78.62;99984.41;5001985;28;20192;-84
2021/11/12 10:36:48;;;;;;;;;;;;;;;3.72;78.32;99990.44;5002274;28;19924;-84
2021/11/12 10:39:14;;;;;;;;;;;;;;;3.70;78.09;99985.25;5002488;28;20004;-84
2021/11/12 10:41:39;;;;;;;;;;;;;;;3.71;78.11;99979.09;4984600;28;20349;-84
2021/11/12 10:44:11;;;;;;;;;;;;;;;3.79;77.97;99969.38;5001864;28;20004;-84
2021/11/12 10:46:43;;;;;;;;;;;;;;;3.79;77.99;99958.91;5003466;28;19926;-84
2021/11/12 10:49:25;;;;;;;;;;;;;;;3.80;78.10;99951.91;5002383;28;20015;-84
2021/11/12 10:51:52;;;;;;;;;;;;;;;3.80;78.05;99937.06;5002666;28;20045;-84
2021/11/12 10:54:37;;;;;;;;;;;;;;;3.86;77.93;99938.75;5001844;28;19972;-84
2021/11/12 10:57:04;;;;;;;;;;;;;;;3.84;78.22;99943.13;5002503;28;19917;-84
2021/11/12 10:59:30;;;;;;;;;;;;;;;3.85;77.94;99946.63;5000871;28;19929;-84
2021/11/12 11:01:55;;;;;;;;;;;;;;;3.85;78.00;99941.38;5002283;28;19917;-84
2021/11/12 11:04:22;;;;;;;;;;;;;;;3.87;77.87;99939.59;5002230;28;20407;-84
2021/11/12 11:06:50;;;;;;;;;;;;;;;3.88;77.87;99939.56;5002795;28;19917;-84
2021/11/12 11:09:16;;;;;;;;;;;;;;;3.91;77.60;99933.41;5002201;28;19918;-84
2021/11/12 11:11:42;;;;;;;;;;;;;;;3.89;77.20;99919.47;5002289;28;19922;-84
2021/11/12 11:14:27;;;;;;;;;;;;;;;3.91;77.67;99922.91;5001476;28;19918;-84
2021/11/12 11:16:53;;;;;;;;;;;;;;;3.86;77.44;99911.63;5002170;28;19928;-84
2021/11/12 11:19:32;;;;;;;;;;;;;;;3.91;77.35;99922.91;4988715;28;19918;-85
2021/11/12 11:22:02;;;;;;;;;;;;;;;3.88;77.22;99918.59;5006551;28;19924;-84
2021/11/12 11:24:34;;;;;;;;;;;;;;;3.94;77.54;99922.88;5006227;28;19925;-83
2021/11/12 11:27:00;;;;;;;;;;;;;;;3.88;77.62;99912.47;5004585;28;19918;-83
2021/11/12 11:29:26;;;;;;;;;;;;;;;3.88;77.49;99910.75;5004428;28;19929;-84
2021/11/12 11:31:52;;;;;;;;;;;;;;;3.92;77.51;99904.53;5006269;28;19917;-84
2021/11/12 11:34:18;;;;;;;;;;;;;;;3.92;77.38;99904.53;5004327;28;20346;-84
2021/11/12 11:36:44;;;;;;;;;;;;;;;3.94;77.83;99901.91;5005401;28;19928;-84
2021/11/12 11:39:11;;;;;;;;;;;;;;;3.95;77.48;99895.78;5006399;28;19917;-83
2021/11/12 11:41:37;;;;;;;;;;;;;;;3.90;77.33;99897.63;4987872;28;19945;-83
2021/11/12 11:44:05;;;;;;;;;;;;;;;3.92;77.64;99898.44;5004802;28;20000;-83
2021/11/12 11:46:34;;;;;;;;;;;;;;;3.96;77.62;99889.66;5005142;28;20492;-84
2021/11/12 11:49:00;;;;;;;;;;;;;;;3.95;77.60;99894.03;5005703;28;20551;-83
2021/11/12 11:51:27;;;;;;;;;;;;;;;3.96;77.75;99894.91;5005931;28;19921;-84
2021/11/12 11:53:53;;;;;;;;;;;;;;;3.99;77.92;99900.13;5005787;28;20399;-83
2021/11/12 11:56:30;;;;;;;;;;;;;;;3.97;77.79;99901.88;5005485;28;19918;-84
2021/11/12 11:58:58;;;;;;;;;;;;;;;3.97;77.81;99908.00;5004347;28;20365;-83
2021/11/12 12:01:29;;;;;;;;;;;;;;;3.97;77.90;99901.88;5005151;28;20250;-83
2021/11/12 12:04:10;;;;;;;;;;;;;;;3.98;78.10;99886.13;5005211;28;19921;-83
2021/11/12 12:06:54;;;;;;;;;;;;;;;4.03;78.24;99880.81;5005301;28;20020;-83
2021/11/12 12:09:38;;;;;;;;;;;;;;;4.02;78.07;99876.47;5005315;28;19922;-83
2021/11/12 12:12:04;;;;;;;;;;;;;;;4.07;78.18;99876.38;5011737;28;19918;-84
2021/11/12 12:14:31;;;;;;;;;;;;;;;4.01;78.11;99879.97;4987070;28;20339;-83
2021/11/12 12:17:02;;;;;;;;;;;;;;;4.05;78.22;99883.41;5004909;28;20281;-84
2021/11/12 12:19:42;;;;;;;;;;;;;;;4.06;78.27;99874.66;5004881;28;20023;-84
2021/11/12 12:22:36;;;;;;;;;;;;;;;4.08;78.34;99865.00;5004934;28;19925;-84
2021/11/12 12:30:55;;;;;;;;;;;;;;;4.10;78.70;99866.72;5002513;28;19929;-84
2021/11/12 12:34:04;;;;;;;;;;;;;;;4.11;78.78;99860.56;5005006;28;20021;-85
2021/11/12 13:25:39;;;;;;;;;;;;;;;4.52;88.42;99826.69;4965286;28;19926;-84
2021/11/12 13:28:07;;;;;;;;;;;;;;;4.52;89.09;99822.31;4965337;28;19919;-84
2021/11/12 13:30:32;;;;;;;;;;;;;;;4.47;90.11;99826.78;4963363;28;19922;-84
2021/11/12 13:32:57;;;;;;;;;;;;;;;4.44;91.52;99823.34;4965394;28;20013;-84
2021/11/12 13:35:30;;;;;;;;;;;;;;;4.28;93.71;99815.72;4963472;28;19930;-84
2021/11/12 13:37:56;;;;;;;;;;;;;;;4.29;96.71;99819.22;4964817;28;20301;-84
2021/11/12 13:40:21;;;;;;;;;;;;;;;4.41;99.81;99810.28;4964191;28;19928;-84
2021/11/12 13:42:47;;;;;;;;;;;;;;;4.57;100.00;99800.38;4963192;28;19946;-84
2021/11/12 13:45:13;;;;;;;;;;;;;;;4.76;100.00;99798.28;4968669;28;20385;-84
2021/11/12 13:47:38;;;;;;;;;;;;;;;4.83;100.00;99790.25;5003402;28;20013;-84
2021/11/12 13:50:04;;;;;;;;;;;;;;;4.92;100.00;99797.09;4985634;28;19922;-84
2021/11/12 13:52:33;;;;;;;;;;;;;;;4.99;100.00;99792.56;5003774;28;19976;-84
2021/11/12 13:55:07;;;;;;;;;;;;;;;5.06;100.00;99779.28;5003536;28;19975;-84
2021/11/12 13:57:33;;;;;;;;;;;;;;;5.12;100.00;99770.41;5009885;28;20288;-84
2021/11/12 14:00:04;;;;;;;;;;;;;;;5.13;100.00;99771.28;5001863;28;19920;-85
2021/11/12 14:02:31;;;;;;;;;;;;;;;5.18;100.00;99769.44;5003818;28;20004;-85
2021/11/12 14:05:09;;;;;;;;;;;;;;;5.22;100.00;99771.09;4985379;28;19924;-84
2021/11/12 14:07:34;;;;;;;;;;;;;;;5.27;100.00;99756.94;5002903;28;19976;-84
2021/11/12 14:10:00;;;;;;;;;;;;;;;5.31;100.00;99759.50;4985414;28;20336;-84
2021/11/12 14:12:26;;;;;;;;;;;;;;;5.34;100.00;99759.44;4985124;28;19922;-85
2021/11/12 14:15:10;;;;;;;;;;;;;;;5.34;100.00;99751.56;5001845;28;19918;-85
2021/11/12 14:17:44;;;;;;;;;;;;;;;5.35;100.00;99761.19;5002915;28;20122;-84
2021/11/12 14:20:26;;;;;;;;;;;;;;;5.43;100.00;99756.63;4985277;28;20024;-84
2021/11/12 14:23:04;;;;;;;;;;;;;;;5.43;100.00;99756.63;5003192;28;20304;-84
2021/11/12 14:26:05;;;;;;;;;;;;;;;5.37;100.00;99756.75;5002723;28;19928;-84
2021/11/12 14:39:04;;;;;;;;;;;;;;;3.89;100.00;99784.00;5003519;28;20118;-84
2021/11/12 14:41:47;;;;;;;;;;;;;;;3.82;100.00;99787.63;5002242;28;19997;-84
2021/11/12 14:44:34;;;;;;;;;;;;;;;3.68;98.41;99779.94;5001805;28;19917;-84
2021/11/12 14:47:10;;;;;;;;;;;;;;;3.67;96.59;99786.09;5002310;28;19925;-84
2021/11/12 14:49:42;;;;;;;;;;;;;;;3.52;94.96;99788.94;5003007;28;20411;-84
2021/11/12 14:52:16;;;;;;;;;;;;;;;3.55;93.39;99779.28;5001414;28;19957;-84
2021/11/12 14:54:45;;;;;;;;;;;;;;;3.48;92.72;99782.88;5003251;28;19942;-84
2021/11/12 14:59:45;;;;;;;;;;;;;;;3.38;91.15;99784.75;5001614;28;20292;-84
2021/11/12 15:02:10;;;;;;;;;;;;;;;3.35;90.54;99794.38;5002396;28;19922;-85
2021/11/12 15:04:36;;;;;;;;;;;;;;;3.29;90.25;99797.97;5002539;28;19963;-84
2021/11/12 15:07:01;;;;;;;;;;;;;;;3.31;89.82;99795.34;5002449;28;21090;-84
2021/11/12 15:09:30;;;;;;;;;;;;;;;3.35;89.33;99800.53;5002248;28;20333;-85
2021/11/12 15:11:55;;;;;;;;;;;;;;;3.25;88.60;99791.03;5002332;28;20365;-85
2021/11/12 15:14:28;;;;;;;;;;;;;;;3.38;88.46;99792.63;5000740;28;19987;-85
2021/11/12 15:16:54;;;;;;;;;;;;;;;3.33;88.17;99790.94;5002278;28;19925;-84
2021/11/12 15:19:21;;;;;;;;;;;;;;;3.23;87.99;99783.19;5001980;28;19921;-85
2021/11/12 15:21:57;;;;;;;;;;;;;;;3.21;87.64;99779.72;5002640;28;20014;-85
2021/11/12 15:24:31;;;;;;;;;;;;;;;3.21;87.77;99784.97;5002177;28;19922;-85
2021/11/12 15:29:52;;;;;;;;;;;;;;;3.10;87.01;99786.88;5001510;28;19997;-84
2021/11/12 15:32:23;;;;;;;;;;;;;;;3.02;86.42;99776.47;5002428;28;19918;-85
2021/11/12 15:34:55;;;;;;;;;;;;;;;3.12;86.29;99773.75;4984656;28;19925;-85
2021/11/12 15:37:28;;;;;;;;;;;;;;;3.00;85.81;99775.63;5001842;28;19929;-85
2021/11/12 15:40:04;;;;;;;;;;;;;;;3.05;86.00;99768.59;5001955;28;19914;-85
2021/11/12 15:48:07;;;;;;;;;;;;;;;2.96;85.14;99763.47;5001869;28;19921;-84
2021/11/12 16:01:20;;;;;;;;;;;;;;;2.90;84.58;99766.16;5000200;28;19991;-85
2021/11/12 16:11:46;;;;;;;;;;;;;;;2.89;83.72;99788.00;5005206;28;20003;-85
2021/11/12 16:14:15;;;;;;;;;;;;;;;2.85;83.68;99797.59;5002227;28;19925;-85
2021/11/12 16:19:30;;;;;;;;;;;;;;;2.80;83.14;99786.31;5005088;28;19964;-85
2021/11/12 16:27:08;;;;;;;;;;;;;;;2.75;83.31;99784.66;5005020;28;20289;-85
2021/11/12 16:29:46;;;;;;;;;;;;;;;2.64;82.97;99788.25;5003590;28;19921;-88
2021/11/12 16:32:21;;;;;;;;;;;;;;;2.63;83.01;99777.78;4989556;28;19983;-87
2021/11/12 16:34:49;;;;;;;;;;;;;;;2.61;83.25;99783.03;5004358;28;19926;-87
2021/11/12 16:37:17;;;;;;;;;;;;;;;2.59;83.17;99790.03;4986312;28;19922;-87
2021/11/12 16:55:27;;;;;;;;;;;;;;;2.56;82.51;99779.59;5004192;28;20520;-86
2021/11/12 17:13:52;;;;;;;;;;;;;;;2.50;82.42;99777.91;5003702;28;19929;-85
2021/11/12 17:16:35;;;;;;;;;;;;;;;2.57;81.96;99781.34;5001032;28;19976;-85
2021/11/12 17:46:17;;;;;;;;;;;;;;;2.43;80.78;99773.63;5001409;28;19929;-85
2021/11/12 17:51:38;;;;;;;;;;;;;;;2.51;80.98;99776.19;5004070;28;20472;-84
2021/11/12 18:02:21;;;;;;;;;;;;;;;2.59;79.88;99752.56;5002902;28;19971;-83
2021/11/12 21:48:37;;;;;;;;;;;;;;;3.28;73.73;99644.34;5002997;28;19929;-84
2021/11/12 21:51:03;;;;;;;;;;;;;;;3.31;74.12;99638.19;4985131;28;20012;-84
2021/11/12 21:53:29;;;;;;;;;;;;;;;3.27;74.19;99639.97;5001912;28;19933;-84
2021/11/12 21:55:55;;;;;;;;;;;;;;;3.36;74.29;99631.13;5004100;28;19918;-87
2021/11/12 21:58:21;;;;;;;;;;;;;;;3.32;74.20;99635.56;5009158;28;19921;-84
2021/11/12 22:00:47;;;;;;;;;;;;;;;3.29;73.77;99632.97;5001256;28;19918;-85
2021/11/12 22:03:15;;;;;;;;;;;;;;;3.34;73.80;99625.91;5002908;28;20455;-84
2021/11/12 22:05:41;;;;;;;;;;;;;;;3.35;73.90;99608.44;4984300;28;19926;-84
2021/11/12 22:08:06;;;;;;;;;;;;;;;3.36;73.79;99610.16;5003015;28;20008;-84
2021/11/12 22:10:32;;;;;;;;;;;;;;;3.36;73.79;99613.63;5003461;28;19921;-83
2021/11/12 22:12:57;;;;;;;;;;;;;;;3.38;73.79;99622.34;5002788;28;19984;-84
2021/11/12 22:15:23;;;;;;;;;;;;;;;3.40;73.83;99633.66;5002382;28;19936;-84
2021/11/12 22:17:48;;;;;;;;;;;;;;;3.37;73.95;99638.09;5001843;28;20012;-83
2021/11/12 22:20:16;;;;;;;;;;;;;;;3.45;73.91;99657.19;5001472;28;19921;-84
2021/11/12 22:22:41;;;;;;;;;;;;;;;3.43;74.82;99670.28;4985484;28;19932;-85
2021/11/12 22:25:07;;;;;;;;;;;;;;;3.46;74.60;99666.75;5001836;28;19925;-85
2021/11/12 22:27:32;;;;;;;;;;;;;;;3.44;74.21;99656.28;5002207;28;19976;-82
2021/11/12 22:29:57;;;;;;;;;;;;;;;3.44;74.01;99635.34;4982815;28;19984;-84
2021/11/12 22:32:23;;;;;;;;;;;;;;;3.48;74.22;99630.03;5002380;28;19932;-84
2021/11/12 22:34:49;;;;;;;;;;;;;;;3.48;74.60;99632.66;5002697;28;19926;-84
2021/11/12 22:37:15;;;;;;;;;;;;;;;3.51;74.15;99656.19;5002996;28;19987;-84
2021/11/12 22:39:40;;;;;;;;;;;;;;;3.50;74.60;99650.09;5002495;28;20325;-84
2021/11/12 22:42:06;;;;;;;;;;;;;;;3.48;74.57;99656.25;5002184;28;19921;-84
2021/11/12 22:44:32;;;;;;;;;;;;;;;3.47;74.72;99644.06;5002822;28;20805;-83
2021/11/12 22:46:58;;;;;;;;;;;;;;;3.51;74.93;99645.72;4986468;28;20400;-84
2021/11/12 22:49:23;;;;;;;;;;;;;;;3.55;74.39;99647.41;5003032;28;19926;-83
2021/11/12 22:51:48;;;;;;;;;;;;;;;3.58;74.64;99647.34;4984141;28;19926;-83
2021/11/12 22:54:14;;;;;;;;;;;;;;;3.60;74.58;99650.81;5002502;28;19925;-83
2021/11/12 22:56:40;;;;;;;;;;;;;;;3.60;74.57;99645.56;5001911;28;19926;-83
2021/11/12 22:59:05;;;;;;;;;;;;;;;3.64;74.70;99649.88;4983302;28;19922;-83
2021/11/12 23:01:35;;;;;;;;;;;;;;;3.62;74.37;99652.53;5001554;28;19922;-83
2021/11/12 23:04:00;;;;;;;;;;;;;;;3.63;74.45;99651.63;5001860;28;19999;-82
2021/11/12 23:06:26;;;;;;;;;;;;;;;3.68;73.94;99648.91;4984853;28;20428;-83
2021/11/12 23:08:51;;;;;;;;;;;;;;;3.67;74.16;99646.31;5001690;28;19925;-83
2021/11/12 23:11:17;;;;;;;;;;;;;;;3.72;74.93;99645.38;5000495;28;20315;-83
2021/11/12 23:13:43;;;;;;;;;;;;;;;3.71;74.34;99633.16;4984744;28;19961;-83
2021/11/12 23:16:09;;;;;;;;;;;;;;;3.71;74.26;99627.91;5004646;28;19921;-83
2021/11/12 23:18:35;;;;;;;;;;;;;;;3.73;74.85;99625.25;5007032;28;19925;-82
2021/11/12 23:21:01;;;;;;;;;;;;;;;3.70;74.71;99623.56;5007691;28;19929;-83
2021/11/12 23:23:26;;;;;;;;;;;;;;;3.74;74.55;99621.75;4988018;28;19929;-82
2021/11/12 23:25:52;;;;;;;;;;;;;;;3.72;74.35;99620.91;5005409;28;20388;-83
2021/11/12 23:28:18;;;;;;;;;;;;;;;3.75;74.61;99616.50;5006753;28;20064;-83
2021/11/12 23:30:43;;;;;;;;;;;;;;;3.73;74.64;99620.88;4987822;28;19921;-83
2021/11/12 23:33:09;;;;;;;;;;;;;;;3.75;74.16;99624.34;5006661;28;20444;-83
2021/11/12 23:35:34;;;;;;;;;;;;;;;3.79;73.95;99620.78;5004222;28;20336;-83
2021/11/12 23:37:59;;;;;;;;;;;;;;;3.72;73.71;99623.53;4988405;28;20017;-82
2021/11/12 23:40:25;;;;;;;;;;;;;;;3.76;74.12;99625.22;5005998;28;19965;-83
2021/11/12 23:42:50;;;;;;;;;;;;;;;3.74;73.91;99627.84;5006183;28;20279;-83
2021/11/12 23:45:16;;;;;;;;;;;;;;;3.72;73.89;99634.88;5003844;28;19921;-83
2021/11/12 23:47:43;;;;;;;;;;;;;;;3.77;74.12;99629.56;5005579;28;20024;-84
2021/11/12 23:50:09;;;;;;;;;;;;;;;3.76;73.94;99631.31;5004447;28;19991;-84
2021/11/12 23:52:36;;;;;;;;;;;;;;;3.73;73.83;99610.38;5007871;28;20356;-84
2021/11/12 23:55:04;;;;;;;;;;;;;;;3.77;74.10;99606.84;5006057;28;19929;-84
2021/11/12 23:57:29;;;;;;;;;;;;;;;3.77;73.98;99590.25;5005357;28;20364;-84
2021/11/12 23:59:55;;;;;;;;;;;;;;;3.81;74.25;99591.91;5004663;28;19930;-84
